Time;durP1;ratioP1;P1;durP2;ratioP2;P2;SDS_P1;SDS_P2;PMS_P1;PMS_P2;Temp;Humidity;BMP_temperature;BMP_pressure;BME280_temperature;BME280_humidity;BME280_pressure;Samples;Min_cycle;Max_cycle;Signal;HPM_P1;HPM_P2
2021/05/29 00:00:52;;;;;;;4.20;3.40;;;;;;;12.14;87.56;98229.31;5087413;28;20091;-79
2021/05/29 00:03:18;;;;;;;6.40;4.03;;;;;;;12.07;87.97;98226.13;5121190;28;20020;-80
2021/05/29 00:05:45;;;;;;;4.80;3.65;;;;;;;11.92;88.62;98215.38;5121590;28;20012;-80
2021/05/29 00:08:11;;;;;;;3.67;3.22;;;;;;;11.99;88.90;98228.72;5121247;28;20051;-81
2021/05/29 00:10:38;;;;;;;4.93;3.22;;;;;;;11.96;88.49;98218.34;5121138;28;20016;-79
2021/05/29 00:13:04;;;;;;;7.97;2.88;;;;;;;11.99;88.51;98215.84;5121110;28;20042;-78
2021/05/29 00:15:30;;;;;;;5.20;2.90;;;;;;;11.94;88.99;98217.81;5120987;28;20016;-81
2021/05/29 00:17:55;;;;;;;5.75;3.33;;;;;;;12.00;88.71;98201.00;5121131;28;20023;-79
2021/05/29 00:20:23;;;;;;;4.88;3.20;;;;;;;12.00;88.61;98222.94;5120923;28;20020;-79
2021/05/29 00:22:48;;;;;;;4.93;3.25;;;;;;;11.90;89.25;98208.59;5120341;28;20017;-79
2021/05/29 00:25:16;;;;;;;5.53;3.03;;;;;;;11.88;89.69;98202.56;5120686;28;20020;-79
2021/05/29 00:27:41;;;;;;;6.93;3.85;;;;;;;11.71;89.96;98203.94;5120523;28;20012;-79
2021/05/29 00:30:07;;;;;;;4.50;2.90;;;;;;;11.68;90.09;98203.66;5120003;28;20019;-79
2021/05/29 00:32:33;;;;;;;3.05;2.33;;;;;;;11.77;90.09;98210.13;5120438;28;20036;-79
2021/05/29 00:45:06;;;;;;;6.95;3.00;;;;;;;11.45;91.36;98199.06;5803792;22;20061;-86
2021/05/29 00:47:31;;;;;;;3.38;2.75;;;;;;;11.44;91.64;98209.19;5018985;28;20060;-88
2021/05/29 00:49:59;;;;;;;3.75;2.72;;;;;;;11.45;91.79;98220.97;5020024;28;20022;-88
2021/05/29 00:52:25;;;;;;;4.35;2.60;;;;;;;11.47;92.02;98213.25;5003486;28;20022;-88
2021/05/29 00:54:51;;;;;;;5.45;2.58;;;;;;;11.63;91.30;98215.50;5003351;28;20061;-87
2021/05/29 00:57:17;;;;;;;4.50;2.65;;;;;;;11.65;91.20;98209.75;5010389;28;20030;-87
2021/05/29 00:59:44;;;;;;;7.72;3.35;;;;;;;11.58;91.57;98209.28;4986227;28;20369;-87
2021/05/29 01:02:11;;;;;;;3.53;2.95;;;;;;;11.59;92.00;98210.94;5019197;28;20040;-87
2021/05/29 01:04:38;;;;;;;9.13;3.28;;;;;;;11.67;91.18;98205.59;5022040;28;20029;-89
2021/05/29 01:07:09;;;;;;;2.85;2.40;;;;;;;11.61;91.66;98209.50;5024765;28;20549;-88
2021/05/29 01:09:39;;;;;;;4.07;2.58;;;;;;;11.55;91.75;98210.69;5027661;28;20033;-86
2021/05/29 01:12:08;;;;;;;7.78;3.25;;;;;;;11.48;92.92;98207.50;4999509;28;20077;-87
2021/05/29 01:14:42;;;;;;;4.43;3.40;;;;;;;11.46;93.24;98209.72;4981177;28;20454;-87
2021/05/29 01:17:07;;;;;;;3.90;2.90;;;;;;;11.45;93.74;98205.34;4996210;28;20037;-88
2021/05/29 01:19:32;;;;;;;4.50;3.10;;;;;;;11.42;94.20;98205.94;5003870;28;20101;-87
2021/05/29 01:21:58;;;;;;;9.50;3.67;;;;;;;11.45;94.29;98215.50;5013478;28;20029;-87
2021/05/29 01:24:25;;;;;;;8.05;3.30;;;;;;;11.41;94.48;98209.78;4998040;28;20040;-85
2021/05/29 01:26:53;;;;;;;5.40;3.30;;;;;;;11.52;94.08;98216.78;4997594;28;20030;-87
2021/05/29 01:29:19;;;;;;;6.78;3.78;;;;;;;11.52;93.91;98205.81;5015412;28;20541;-88
2021/05/29 01:31:48;;;;;;;3.38;2.97;;;;;;;11.46;94.19;98203.44;4991063;28;20120;-88
2021/05/29 01:34:15;;;;;;;6.32;2.63;;;;;;;11.49;93.63;98209.16;5006155;28;20107;-88
2021/05/29 01:36:41;;;;;;;6.03;3.60;;;;;;;11.49;93.29;98206.41;5003094;28;20098;-90
2021/05/29 01:39:11;;;;;;;4.25;2.83;;;;;;;11.42;93.16;98195.00;5006131;28;20131;-88
2021/05/29 01:41:37;;;;;;;4.88;2.97;;;;;;;11.43;93.15;98201.28;4984129;28;20025;-87
2021/05/29 01:44:06;;;;;;;3.90;2.30;;;;;;;11.49;92.79;98203.66;5004347;28;20104;-89
2021/05/29 01:46:32;;;;;;;4.38;2.47;;;;;;;11.54;92.04;98200.84;5002955;28;20495;-89
2021/05/29 01:48:57;;;;;;;2.85;2.30;;;;;;;11.48;92.02;98188.31;5003688;28;20030;-88
2021/05/29 01:51:24;;;;;;;5.07;2.47;;;;;;;11.39;92.99;98201.06;4985075;28;20105;-87
2021/05/29 01:53:51;;;;;;;4.95;2.60;;;;;;;11.27;93.34;98198.75;5008906;28;20022;-87
2021/05/29 01:56:17;;;;;;;4.22;2.75;;;;;;;11.21;93.94;98199.09;4989483;28;20065;-89
2021/05/29 01:58:43;;;;;;;2.97;2.55;;;;;;;11.17;94.08;98198.06;4985215;28;20026;-87
2021/05/29 02:01:14;;;;;;;5.07;3.15;;;;;;;11.11;94.48;98196.50;5001461;28;20062;-86
2021/05/29 02:03:41;;;;;;;4.05;2.70;;;;;;;11.05;94.76;98195.75;5005923;28;20041;-88
2021/05/29 02:06:07;;;;;;;9.48;3.38;;;;;;;11.03;95.06;98199.84;4995282;28;20034;-88
2021/05/29 02:08:32;;;;;;;10.70;3.40;;;;;;;11.24;94.39;98198.53;5000979;28;20085;-86
2021/05/29 02:10:58;;;;;;;4.68;2.90;;;;;;;11.24;94.30;98199.31;5000211;28;20082;-88
2021/05/29 02:13:25;;;;;;;11.43;5.55;;;;;;;11.20;94.44;98197.47;5017126;28;21388;-87
2021/05/29 02:15:51;;;;;;;3.95;2.70;;;;;;;11.21;94.53;98204.59;5023950;28;20033;-87
2021/05/29 02:18:17;;;;;;;6.05;3.00;;;;;;;11.13;94.76;98199.75;5007239;28;20085;-86
2021/05/29 02:20:44;;;;;;;5.78;3.17;;;;;;;11.14;94.90;98212.34;5027033;28;20021;-88
2021/05/29 02:23:12;;;;;;;5.22;3.08;;;;;;;11.07;95.33;98209.13;5000647;28;20081;-88
2021/05/29 02:25:38;;;;;;;4.32;2.58;;;;;;;11.01;96.01;98211.13;5017076;28;20125;-88
2021/05/29 02:28:05;;;;;;;3.25;2.92;;;;;;;11.03;95.76;98213.53;5016686;28;20033;-88
2021/05/29 02:30:31;;;;;;;2.90;2.60;;;;;;;11.09;95.08;98195.94;5003704;28;20035;-87
2021/05/29 02:32:57;;;;;;;2.88;2.47;;;;;;;11.14;95.01;98198.66;4985524;28;20027;-89
2021/05/29 02:35:22;;;;;;;5.38;3.03;;;;;;;11.10;95.08;98192.94;5012241;28;20030;-88
2021/05/29 02:37:48;;;;;;;4.65;3.30;;;;;;;11.03;95.35;98186.16;4992591;28;20030;-88
2021/05/29 02:40:14;;;;;;;8.48;4.10;;;;;;;11.04;95.32;98182.34;5004254;28;20369;-88
2021/05/29 02:42:40;;;;;;;5.32;3.13;;;;;;;10.96;95.80;98189.28;4997767;28;20030;-88
2021/05/29 02:45:06;;;;;;;5.32;3.75;;;;;;;10.96;95.85;98185.72;4994934;28;20069;-88
2021/05/29 02:47:32;;;;;;;5.20;3.55;;;;;;;10.93;95.94;98180.84;4984588;28;20070;-88
2021/05/29 02:49:57;;;;;;;4.78;3.05;;;;;;;10.90;96.55;98186.91;4988085;28;20105;-87
2021/05/29 02:52:22;;;;;;;4.72;4.00;;;;;;;10.84;96.81;98183.38;4979097;28;20080;-90
2021/05/29 02:54:48;;;;;;;4.72;3.13;;;;;;;10.80;97.09;98179.63;4994519;28;20057;-89
2021/05/29 02:57:13;;;;;;;3.92;3.38;;;;;;;10.74;97.37;98172.56;4977562;28;20030;-88
2021/05/29 02:59:39;;;;;;;5.50;3.63;;;;;;;10.84;97.26;98175.19;4977558;28;20026;-88
2021/05/29 03:02:10;;;;;;;3.45;3.10;;;;;;;10.81;97.09;98167.56;4977263;28;20026;-89
2021/05/29 03:04:37;;;;;;;4.38;3.28;;;;;;;10.83;97.73;98170.00;4995507;28;20060;-87
2021/05/29 03:07:04;;;;;;;4.13;3.25;;;;;;;10.82;97.62;98169.19;4990720;28;20022;-88
2021/05/29 03:09:30;;;;;;;4.63;3.45;;;;;;;10.83;97.97;98175.47;5017252;28;20025;-88
2021/05/29 03:11:57;;;;;;;7.45;3.70;;;;;;;10.97;97.57;98176.41;5020170;28;20026;-86
2021/05/29 03:14:22;;;;;;;5.88;2.83;;;;;;;10.87;98.20;98188.28;4993408;28;20025;-87
2021/05/29 03:16:49;;;;;;;10.82;3.83;;;;;;;10.85;98.33;98182.28;5000195;28;20585;-88
2021/05/29 03:19:15;;;;;;;7.15;3.40;;;;;;;10.80;98.51;98173.31;5006822;28;20037;-88
2021/05/29 03:21:41;;;;;;;7.97;3.70;;;;;;;10.80;98.62;98162.38;4999673;28;20026;-88
2021/05/29 03:24:07;;;;;;;5.18;3.35;;;;;;;10.84;98.71;98182.59;5000196;28;20097;-88
2021/05/29 03:26:33;;;;;;;7.47;3.22;;;;;;;10.85;98.35;98186.94;5017531;28;20072;-87
2021/05/29 03:28:59;;;;;;;5.90;2.83;;;;;;;10.97;97.91;98190.06;4986877;28;20038;-88
2021/05/29 03:31:24;;;;;;;5.10;3.50;;;;;;;11.09;96.95;98182.25;4999526;28;20022;-88
2021/05/29 03:33:50;;;;;;;3.42;2.72;;;;;;;11.12;96.82;98181.72;4999631;28;20040;-87
2021/05/29 03:36:15;;;;;;;7.38;3.28;;;;;;;11.20;95.47;98181.03;5004951;28;20054;-87
2021/05/29 03:38:41;;;;;;;4.68;3.17;;;;;;;11.19;95.54;98188.44;4996475;28;20026;-87
2021/05/29 03:41:07;;;;;;;5.57;3.08;;;;;;;11.09;96.67;98195.94;4989875;28;20489;-87
2021/05/29 03:43:32;;;;;;;5.55;3.35;;;;;;;11.08;96.42;98194.34;4987983;28;20026;-88
2021/05/29 03:45:58;;;;;;;5.97;3.00;;;;;;;11.28;95.51;98194.06;5000881;28;20053;-86
2021/05/29 03:48:23;;;;;;;6.10;2.88;;;;;;;11.30;94.89;98183.66;5003316;28;20069;-87
2021/05/29 03:50:49;;;;;;;2.35;2.15;;;;;;;11.34;94.52;98186.63;4993844;28;20125;-86
2021/05/29 03:53:14;;;;;;;6.32;2.60;;;;;;;11.27;94.08;98178.75;5016206;28;20029;-87
2021/05/29 03:55:40;;;;;;;3.90;2.60;;;;;;;11.24;94.31;98193.03;5008187;28;20035;-88
2021/05/29 03:58:05;;;;;;;2.85;2.03;;;;;;;11.31;94.10;98196.22;4980189;28;20118;-86
2021/05/29 04:00:32;;;;;;;6.15;2.50;;;;;;;11.07;94.67;98185.31;4980119;28;20031;-85
2021/05/29 04:02:58;;;;;;;5.07;2.70;;;;;;;11.24;94.48;98193.84;4998366;28;20030;-87
2021/05/29 04:05:23;;;;;;;2.78;2.40;;;;;;;11.10;94.96;98189.38;4997358;28;20057;-88
2021/05/29 04:07:50;;;;;;;5.28;2.58;;;;;;;11.12;94.78;98187.97;4997102;28;20084;-88
2021/05/29 04:10:19;;;;;;;4.38;2.60;;;;;;;11.10;95.02;98176.50;4979769;28;20388;-87
2021/05/29 04:12:46;;;;;;;5.43;2.78;;;;;;;11.13;95.28;98175.09;4979802;28;20034;-84
2021/05/29 04:15:13;;;;;;;6.05;2.65;;;;;;;11.19;95.16;98173.94;4979825;28;20089;-86
2021/05/29 04:17:39;;;;;;;3.22;2.47;;;;;;;11.24;94.40;98168.41;4979351;28;20116;-87
2021/05/29 04:20:06;;;;;;;3.08;2.33;;;;;;;11.33;93.86;98171.28;4980527;28;20395;-87
2021/05/29 04:22:31;;;;;;;3.70;2.47;;;;;;;11.34;93.73;98165.50;4996583;28;20022;-87
2021/05/29 04:24:57;;;;;;;2.95;2.58;;;;;;;11.35;93.55;98164.41;4997030;28;20030;-87
2021/05/29 04:27:23;;;;;;;3.78;2.63;;;;;;;11.29;93.69;98171.88;4996288;28;20034;-88
2021/05/29 04:29:48;;;;;;;6.55;3.75;;;;;;;11.17;94.26;98168.75;4997747;28;20018;-86
2021/05/29 04:32:14;;;;;;;5.05;3.50;;;;;;;11.24;94.57;98171.13;4997351;28;20026;-88
2021/05/29 04:34:39;;;;;;;10.23;2.88;;;;;;;11.30;94.04;98172.69;4995565;28;20034;-85
2021/05/29 04:37:05;;;;;;;4.00;2.83;;;;;;;11.44;93.46;98180.97;4996758;28;20076;-87
2021/05/29 04:39:31;;;;;;;5.45;2.67;;;;;;;11.56;93.23;98190.38;4996634;28;20030;-87
2021/05/29 04:41:57;;;;;;;5.43;3.97;;;;;;;11.69;92.22;98184.19;4996417;28;20102;-88
2021/05/29 04:44:22;;;;;;;4.72;3.03;;;;;;;11.91;91.55;98177.28;4996837;28;20109;-88
2021/05/29 04:46:52;;;;;;;4.75;3.03;;;;;;;11.93;91.21;98175.09;4979909;28;20030;-87
2021/05/29 04:49:22;;;;;;;4.78;2.95;;;;;;;12.04;90.67;98174.63;4997935;28;20037;-88
2021/05/29 04:51:49;;;;;;;4.32;3.05;;;;;;;12.02;90.21;98174.13;4995379;28;20046;-87
2021/05/29 04:54:15;;;;;;;6.07;2.97;;;;;;;11.85;91.49;98187.53;4996433;28;20026;-88
2021/05/29 04:56:41;;;;;;;4.30;2.88;;;;;;;11.87;91.10;98179.84;4996214;28;20026;-88
2021/05/29 04:59:06;;;;;;;4.25;2.15;;;;;;;12.12;89.47;98192.31;4996096;28;20118;-87
2021/05/29 05:01:32;;;;;;;3.92;2.70;;;;;;;12.07;89.21;98186.91;4996715;28;20027;-87
2021/05/29 05:04:01;;;;;;;7.60;3.17;;;;;;;11.98;89.36;98191.44;4996222;28;20510;-87
2021/05/29 05:06:27;;;;;;;3.55;2.80;;;;;;;12.02;89.18;98192.47;4994692;28;20034;-87
2021/05/29 05:08:53;;;;;;;4.03;2.80;;;;;;;12.14;88.45;98181.88;4998392;28;20041;-89
2021/05/29 05:11:19;;;;;;;5.40;2.60;;;;;;;12.18;87.96;98178.25;4997600;28;20029;-87
2021/05/29 05:13:45;;;;;;;6.93;3.35;;;;;;;12.25;88.07;98183.31;5015246;28;20026;-87
2021/05/29 05:16:10;;;;;;;4.80;3.72;;;;;;;12.41;87.00;98190.16;5015235;28;20117;-87
2021/05/29 05:18:36;;;;;;;3.13;2.78;;;;;;;12.58;86.60;98193.16;4998668;28;20053;-89
2021/05/29 05:21:01;;;;;;;6.93;3.63;;;;;;;12.39;86.82;98181.44;5017535;28;20088;-87
2021/05/29 05:23:27;;;;;;;7.97;3.47;;;;;;;12.47;86.96;98205.41;5016949;28;20062;-88
2021/05/29 05:25:53;;;;;;;6.30;3.78;;;;;;;12.50;86.70;98182.84;5018108;28;20021;-87
2021/05/29 05:28:27;;;;;;;3.85;2.88;;;;;;;12.89;85.52;98191.47;5016273;28;20030;-87
2021/05/29 05:31:02;;;;;;;4.15;3.15;;;;;;;13.01;85.01;98182.72;5003019;28;20017;-83
2021/05/29 05:33:29;;;;;;;4.47;2.88;;;;;;;13.19;84.24;98194.72;5012806;28;20033;-82
2021/05/29 05:35:54;;;;;;;5.35;3.65;;;;;;;13.19;84.09;98190.06;4995515;28;20041;-86
2021/05/29 05:38:21;;;;;;;3.60;2.92;;;;;;;13.10;83.99;98185.59;4994797;28;20026;-79
2021/05/29 05:40:46;;;;;;;4.78;3.28;;;;;;;13.13;83.58;98187.72;5004691;28;20026;-82
2021/05/29 05:43:12;;;;;;;6.28;3.63;;;;;;;13.28;83.32;98192.91;4992022;28;20436;-82
2021/05/29 05:45:38;;;;;;;5.20;3.10;;;;;;;13.50;82.42;98197.66;5015602;28;20053;-87
2021/05/29 05:48:04;;;;;;;4.70;3.33;;;;;;;13.70;80.67;98200.78;5002969;28;20509;-88
2021/05/29 05:50:30;;;;;;;4.10;3.30;;;;;;;14.03;79.46;98203.31;5009885;28;20077;-87
2021/05/29 05:52:57;;;;;;;4.05;2.53;;;;;;;13.91;79.28;98201.91;5011119;28;20021;-87
2021/05/29 05:55:23;;;;;;;5.28;3.38;;;;;;;14.10;78.93;98203.69;4998946;28;20033;-87
2021/05/29 05:57:48;;;;;;;4.00;3.03;;;;;;;14.36;77.55;98200.03;4997666;28;20533;-87
2021/05/29 06:00:16;;;;;;;2.92;2.42;;;;;;;14.80;75.98;98179.88;4997157;28;20018;-87
2021/05/29 06:02:42;;;;;;;5.80;3.58;;;;;;;15.32;73.19;98197.41;4996979;28;20022;-86
2021/05/29 06:05:10;;;;;;;5.85;2.58;;;;;;;14.89;74.00;98182.66;4996149;28;20050;-86
2021/05/29 06:07:36;;;;;;;5.25;3.28;;;;;;;14.67;74.97;98197.31;4995741;28;20120;-81
2021/05/29 06:10:02;;;;;;;6.93;2.80;;;;;;;14.47;75.29;98192.34;4996704;28;20028;-85
2021/05/29 06:12:27;;;;;;;4.82;3.17;;;;;;;15.15;73.10;98196.53;4996840;28;20018;-88
2021/05/29 06:20:21;;;;;;;6.22;4.28;;;;;;;15.21;72.54;98192.50;5005154;28;20044;-86
2021/05/29 06:22:46;;;;;;;4.45;2.83;;;;;;;15.52;70.68;98193.28;4993671;28;20026;-86
2021/05/29 06:25:14;;;;;;;3.38;2.35;;;;;;;15.40;70.38;98198.56;4976471;28;20041;-84
2021/05/29 06:27:39;;;;;;;3.17;2.60;;;;;;;15.83;69.42;98204.19;4976900;28;20026;-84
2021/05/29 06:30:08;;;;;;;8.90;2.50;;;;;;;15.97;68.98;98202.91;4994007;28;20118;-85
2021/05/29 06:32:35;;;;;;;5.47;2.60;;;;;;;16.41;67.72;98198.97;4994077;28;20031;-86
2021/05/29 06:35:00;;;;;;;5.18;3.58;;;;;;;16.12;68.10;98193.31;4993888;28;20022;-85
2021/05/29 06:37:26;;;;;;;7.85;3.13;;;;;;;16.00;68.78;98202.25;4993828;28;20029;-87
2021/05/29 06:39:51;;;;;;;3.38;2.72;;;;;;;16.56;66.59;98209.56;4993309;28;20034;-86
2021/05/29 06:42:17;;;;;;;4.80;3.10;;;;;;;16.66;65.63;98205.63;4993643;28;20037;-87
2021/05/29 06:44:42;;;;;;;4.97;2.30;;;;;;;16.21;67.30;98210.69;4977415;28;20053;-85
2021/05/29 06:47:08;;;;;;;4.47;2.80;;;;;;;16.49;66.17;98214.72;4993601;28;20094;-86
2021/05/29 06:49:35;;;;;;;3.92;2.75;;;;;;;16.38;66.63;98224.47;4993864;28;20036;-88
2021/05/29 06:52:06;;;;;;;5.93;2.83;;;;;;;16.68;65.53;98217.16;4976968;28;20031;-86
2021/05/29 06:54:42;;;;;;;5.00;2.80;;;;;;;16.62;65.98;98207.41;4976951;28;20035;-87
2021/05/29 06:59:52;;;;;;;10.88;2.78;;;;;;;17.41;64.02;98201.28;5011328;28;20057;-82
2021/05/29 07:02:18;;;;;;;4.97;2.88;;;;;;;17.71;63.38;98227.81;4979119;28;20018;-82
2021/05/29 07:04:43;;;;;;;4.35;2.92;;;;;;;17.19;63.83;98220.91;4990954;28;20374;-84
2021/05/29 07:07:09;;;;;;;8.80;4.03;;;;;;;17.44;63.71;98215.25;4974955;28;20034;-85
2021/05/29 07:09:34;;;;;;;5.20;3.42;;;;;;;17.68;62.35;98222.94;4999957;28;20017;-84
2021/05/29 07:12:00;;;;;;;4.32;2.50;;;;;;;17.57;63.05;98216.19;4983753;28;20041;-85
2021/05/29 07:14:25;;;;;;;6.78;2.55;;;;;;;17.64;62.25;98219.22;4980875;28;20105;-81
2021/05/29 07:16:52;;;;;;;7.55;2.08;;;;;;;17.83;60.40;98222.34;4998099;28;20450;-81
2021/05/29 07:19:22;;;;;;;4.90;2.42;;;;;;;18.23;58.98;98208.06;4998701;28;20026;-81
2021/05/29 07:21:48;;;;;;;8.55;3.78;;;;;;;18.04;59.36;98217.63;4989508;28;20024;-85
2021/05/29 07:24:13;;;;;;;8.73;7.00;;;;;;;17.99;59.57;98212.31;4988656;28;20042;-86
2021/05/29 07:26:39;;;;;;;4.32;2.28;;;;;;;18.24;58.87;98207.69;4994598;28;20061;-87
2021/05/29 07:29:05;;;;;;;2.72;2.10;;;;;;;18.31;59.21;98219.06;4987273;28;20424;-87
2021/05/29 07:31:31;;;;;;;4.53;2.25;;;;;;;17.97;60.48;98216.56;4986423;28;20017;-84
2021/05/29 07:33:57;;;;;;;62.83;47.65;;;;;;;18.27;60.02;98206.19;4990935;28;20034;-85
2021/05/29 07:36:25;;;;;;;3.47;2.60;;;;;;;18.39;58.75;98209.03;4980839;28;20035;-85
2021/05/29 07:38:51;;;;;;;5.55;3.20;;;;;;;17.66;61.16;98214.19;4987314;28;20456;-84
2021/05/29 07:41:17;;;;;;;7.03;2.67;;;;;;;18.12;59.77;98207.66;5001349;28;20057;-83
2021/05/29 07:43:43;;;;;;;6.35;2.50;;;;;;;18.38;58.94;98212.97;4985700;28;20364;-86
2021/05/29 07:46:09;;;;;;;7.35;3.05;;;;;;;19.01;57.14;98208.91;5004324;28;20053;-84
2021/05/29 07:48:35;;;;;;;5.35;2.45;;;;;;;18.86;56.47;98204.81;4995663;28;20022;-85
2021/05/29 07:51:02;;;;;;;6.80;3.97;;;;;;;18.71;56.50;98205.47;4986941;28;20030;-86
2021/05/29 07:53:37;;;;;;;2.78;1.77;;;;;;;19.42;54.75;98196.84;4982224;28;20100;-86
2021/05/29 07:56:11;;;;;;;2.23;1.70;;;;;;;19.88;53.29;98201.88;5007312;28;20029;-86
2021/05/29 07:58:41;;;;;;;2.22;1.20;;;;;;;19.73;51.99;98205.38;4999091;28;20279;-88
2021/05/29 08:01:06;;;;;;;1.75;1.30;;;;;;;19.78;52.13;98210.69;4986650;28;20039;-85
2021/05/29 08:03:31;;;;;;;12.48;9.45;;;;;;;19.43;53.30;98204.81;4988389;28;20034;-88
2021/05/29 08:05:57;;;;;;;1.42;1.10;;;;;;;19.57;52.86;98207.25;4997731;28;20022;-82
2021/05/29 08:08:24;;;;;;;33.10;19.80;;;;;;;19.22;53.99;98213.22;5010168;28;20034;-84
2021/05/29 08:10:52;;;;;;;3.42;1.38;;;;;;;19.21;54.41;98214.38;5005369;28;20026;-86
2021/05/29 08:13:18;;;;;;;1.45;1.20;;;;;;;18.72;55.78;98207.13;4989774;28;20467;-84
2021/05/29 08:15:45;;;;;;;2.60;1.25;;;;;;;18.48;56.34;98218.88;4991990;28;20030;-85
2021/05/29 08:18:12;;;;;;;5.88;1.60;;;;;;;18.47;56.94;98216.47;4999318;28;20069;-83
2021/05/29 08:20:38;;;;;;;3.72;2.38;;;;;;;18.23;57.25;98216.38;4984131;28;20475;-86
2021/05/29 08:23:05;;;;;;;20.90;9.48;;;;;;;18.66;56.59;98203.75;5006182;28;20033;-85
2021/05/29 08:25:31;;;;;;;1.63;1.40;;;;;;;18.71;56.08;98209.06;5003551;28;20033;-83
2021/05/29 08:27:56;;;;;;;6.68;2.30;;;;;;;18.31;57.00;98215.47;4982732;28;20049;-83
2021/05/29 08:30:22;;;;;;;3.83;2.13;;;;;;;18.62;56.45;98213.91;5003008;28;20076;-82
2021/05/29 08:32:48;;;;;;;1.95;1.45;;;;;;;18.80;54.69;98214.50;5001489;28;20026;-80
2021/05/29 08:35:13;;;;;;;2.60;1.25;;;;;;;19.48;52.89;98210.16;5006728;28;20018;-83
2021/05/29 08:37:41;;;;;;;3.80;1.38;;;;;;;19.44;52.47;98202.84;4986072;28;20026;-85
2021/05/29 08:40:10;;;;;;;2.17;1.77;;;;;;;19.72;51.72;98212.09;4987574;28;20029;-84
2021/05/29 08:42:36;;;;;;;2.78;1.23;;;;;;;20.19;50.70;98209.56;4983974;28;20486;-83
2021/05/29 08:45:04;;;;;;;2.85;1.58;;;;;;;20.32;50.42;98204.81;4999883;28;20050;-86
2021/05/29 08:47:33;;;;;;;2.25;1.50;;;;;;;20.34;51.20;98211.63;5001145;28;20034;-83
2021/05/29 08:49:58;;;;;;;2.47;1.55;;;;;;;21.31;48.07;98206.34;5003573;28;20479;-82
2021/05/29 08:52:23;;;;;;;5.93;1.58;;;;;;;21.41;46.50;98207.78;5001474;28;20056;-81
2021/05/29 08:54:49;;;;;;;2.15;1.95;;;;;;;21.44;47.22;98203.47;4985322;28;20519;-78
2021/05/29 08:57:18;;;;;;;1.85;1.20;;;;;;;21.45;46.29;98199.53;4983483;28;20475;-78
2021/05/29 08:59:44;;;;;;;1.60;1.23;;;;;;;21.97;45.09;98196.41;5001461;28;20029;-77
2021/05/29 09:02:10;;;;;;;0.82;0.82;;;;;;;22.68;44.23;98202.31;4997438;28;20030;-79
2021/05/29 09:05:07;;;;;;;7.25;1.50;;;;;;;22.56;43.96;98202.44;4999246;28;20022;-84
2021/05/29 09:07:32;;;;;;;1.88;1.27;;;;;;;22.90;42.81;98203.53;5006222;28;20023;-78
2021/05/29 09:10:36;;;;;;;2.53;1.20;;;;;;;21.91;45.12;98195.06;5000424;28;20424;-74
2021/05/29 09:13:12;;;;;;;1.42;0.95;;;;;;;22.46;44.45;98191.09;4979157;28;20554;-85
2021/05/29 09:15:58;;;;;;;1.90;1.42;;;;;;;22.23;44.55;98191.00;4997691;28;20034;-85
2021/05/29 09:18:25;;;;;;;3.53;1.17;;;;;;;21.23;47.88;98187.88;4988431;28;20026;-84
2021/05/29 09:20:51;;;;;;;1.42;1.15;;;;;;;20.03;49.31;98181.72;5011562;28;20052;-85
2021/05/29 09:23:17;;;;;;;2.08;1.40;;;;;;;19.84;50.80;98175.97;5016057;28;20022;-86
2021/05/29 09:25:55;;;;;;;4.18;1.52;;;;;;;19.51;51.73;98184.47;5017470;28;20056;-84
2021/05/29 09:28:24;;;;;;;2.40;1.35;;;;;;;20.43;49.48;98183.66;4992410;28;20044;-84
2021/05/29 09:30:52;;;;;;;1.33;1.23;;;;;;;20.85;49.70;98176.50;5012227;28;20026;-88
2021/05/29 09:33:17;;;;;;;5.68;1.80;;;;;;;20.54;50.39;98176.44;5006870;28;20480;-82
2021/05/29 09:35:47;;;;;;;2.38;1.45;;;;;;;21.10;48.89;98166.06;4999472;28;20042;-74
2021/05/29 09:38:14;;;;;;;2.17;1.90;;;;;;;20.72;49.36;98177.75;5001728;28;20049;-74
2021/05/29 09:40:50;;;;;;;2.90;1.85;;;;;;;20.18;50.58;98171.81;4999020;28;20034;-75
2021/05/29 09:43:16;;;;;;;1.88;1.30;;;;;;;20.15;50.78;98167.78;4985939;28;20042;-74
2021/05/29 09:45:42;;;;;;;1.40;1.25;;;;;;;20.52;50.20;98156.53;4998956;28;20622;-73
2021/05/29 09:48:18;;;;;;;2.50;1.70;;;;;;;22.24;46.14;98171.13;4983610;28;20028;-75
2021/05/29 09:51:00;;;;;;;;;;;;;;;23.09;43.04;98177.56;4983170;28;20122;-74
2021/05/29 09:53:27;;;;;;;2.15;1.17;;;;;;;22.99;43.31;98165.06;5001661;28;20408;-85
2021/05/29 09:55:53;;;;;;;3.08;1.67;;;;;;;23.98;41.95;98170.25;5003411;28;20033;-84
2021/05/29 09:58:20;;;;;;;2.67;1.83;;;;;;;24.21;40.82;98173.00;4986944;28;20037;-86
2021/05/29 10:00:47;;;;;;;3.28;2.05;;;;;;;22.78;43.48;98173.00;5007422;28;20026;-85
2021/05/29 10:03:12;;;;;;;8.60;3.70;;;;;;;22.35;45.00;98163.00;4988156;28;20030;-83
2021/05/29 10:05:42;;;;;;;3.85;1.42;;;;;;;23.13;43.35;98165.28;4985259;28;20463;-84
2021/05/29 10:08:14;;;;;;;2.03;1.27;;;;;;;25.37;38.43;98162.25;4983929;28;20027;-81
2021/05/29 10:10:40;;;;;;;2.13;1.42;;;;;;;23.34;41.81;98154.47;4983142;28;20080;-84
2021/05/29 10:13:06;;;;;;;1.88;1.70;;;;;;;23.11;42.76;98153.69;4997181;28;20058;-84
2021/05/29 10:15:32;;;;;;;2.50;1.33;;;;;;;24.76;39.39;98150.84;4976647;28;20442;-85
2021/05/29 10:18:00;;;;;;;1.50;1.40;;;;;;;25.63;37.97;98149.25;4990811;28;20034;-77
2021/05/29 10:20:26;;;;;;;2.00;1.60;;;;;;;23.86;40.66;98144.53;4985939;28;20030;-78
2021/05/29 10:22:52;;;;;;;2.03;1.50;;;;;;;23.08;42.91;98140.50;5006067;28;20029;-81
2021/05/29 10:25:19;;;;;;;1.50;1.05;;;;;;;21.99;45.21;98136.34;5010318;28;20040;-84
2021/05/29 10:27:51;;;;;;;1.77;1.45;;;;;;;21.64;45.65;98124.41;4995008;28;20398;-80
2021/05/29 10:30:19;;;;;;;2.08;0.95;;;;;;;22.04;44.67;98127.72;4974029;28;20476;-83
2021/05/29 10:33:19;;;;;;;5.30;1.42;;;;;;;21.96;43.99;98131.50;4999938;28;20026;-81
2021/05/29 10:35:45;;;;;;;1.00;0.90;;;;;;;22.45;43.95;98126.16;4980708;28;20487;-82
2021/05/29 10:38:12;;;;;;;1.00;0.80;;;;;;;22.84;41.18;98121.31;4993469;28;20426;-82
2021/05/29 10:40:47;;;;;;;1.40;0.90;;;;;;;22.08;42.46;98120.25;5008335;28;20030;-84
2021/05/29 10:43:16;;;;;;;1.35;1.05;;;;;;;22.11;42.63;98125.09;5002549;28;20436;-81
2021/05/29 10:45:50;;;;;;;0.90;0.90;;;;;;;22.45;41.92;98109.44;5005015;28;20061;-80
2021/05/29 10:48:20;;;;;;;1.85;1.30;;;;;;;22.25;41.73;98122.56;4973752;28;20069;-75
2021/05/29 10:53:46;;;;;;;1.08;1.02;;;;;;;21.64;43.29;98102.13;4992150;28;20049;-81
2021/05/29 10:56:20;;;;;;;5.20;1.02;;;;;;;21.39;44.29;98103.56;4975124;28;20399;-83
2021/05/29 10:59:09;;;;;;;1.80;1.42;;;;;;;21.49;43.50;98103.00;4993058;28;20089;-86
2021/05/29 11:01:36;;;;;;;3.33;2.47;;;;;;;21.82;44.13;98104.13;4991424;28;20049;-82
2021/05/29 11:04:23;;;;;;;1.70;0.85;;;;;;;21.68;43.16;98094.66;4974585;28;20120;-77
2021/05/29 11:07:10;;;;;;;1.48;1.02;;;;;;;21.25;43.99;98093.69;4974128;28;20031;-74
2021/05/29 11:09:35;;;;;;;2.15;1.13;;;;;;;21.25;44.64;98084.53;4994855;28;20026;-74
2021/05/29 11:12:07;;;;;;;1.30;0.90;;;;;;;21.64;42.82;98086.25;5002487;28;20541;-73
2021/05/29 11:14:49;;;;;;;1.75;0.82;;;;;;;22.39;42.41;98089.41;5001559;28;20038;-74
2021/05/29 11:17:22;;;;;;;1.27;1.00;;;;;;;21.62;43.22;98099.69;5001968;28;20029;-74
2021/05/29 11:20:04;;;;;;;2.55;1.23;;;;;;;21.06;44.36;98081.66;4999868;28;20030;-78
2021/05/29 11:22:49;;;;;;;0.90;0.80;;;;;;;22.02;42.76;98091.03;4997365;28;20799;-75
2021/05/29 11:25:20;;;;;;;13.57;11.13;;;;;;;21.83;43.21;98089.00;4998838;28;20084;-74
2021/05/29 11:27:48;;;;;;;1.48;1.38;;;;;;;21.42;44.31;98084.16;4985662;28;20509;-77
2021/05/29 11:30:41;;;;;;;0.88;0.70;;;;;;;21.54;43.64;98081.25;5003807;28;20038;-74
2021/05/29 11:35:34;;;;;;;0.90;0.80;;;;;;;21.24;43.93;98074.56;5001811;28;20038;-75
2021/05/29 11:38:40;;;;;;;1.10;0.85;;;;;;;21.00;44.52;98067.22;4987286;28;20076;-74
2021/05/29 11:41:11;;;;;;;1.60;1.10;;;;;;;20.90;44.69;98067.75;4982794;28;20037;-74
2021/05/29 11:43:39;;;;;;;2.78;1.40;;;;;;;20.45;45.39;98073.78;4983092;28;20034;-74
2021/05/29 11:46:06;;;;;;;1.80;0.90;;;;;;;20.80;44.74;98071.91;5004681;28;20092;-74
2021/05/29 11:48:42;;;;;;;1.55;1.25;;;;;;;20.65;45.21;98074.66;5002575;28;20026;-73
2021/05/29 11:51:10;;;;;;;1.50;1.05;;;;;;;20.45;45.92;98070.19;5001347;28;20038;-75
2021/05/29 11:53:41;;;;;;;1.15;0.77;;;;;;;20.53;45.32;98058.09;4999530;28;20454;-74
2021/05/29 11:56:07;;;;;;;1.77;1.00;;;;;;;20.50;47.35;98058.81;5000527;28;20032;-74
2021/05/29 11:58:43;;;;;;;4.45;0.85;;;;;;;20.49;47.94;98057.97;4999414;28;20025;-74
2021/05/29 12:01:09;;;;;;;1.10;1.00;;;;;;;20.48;48.27;98050.84;4997533;28;20085;-73